createdAt,value
2017-02-15T00:00:07.791Z,61.77
2017-02-15T00:00:29.490Z,61.86
2017-02-15T00:00:55.979Z,61.76
2017-02-15T00:01:17.673Z,61.76
2017-02-15T00:01:48.927Z,61.89
2017-02-15T00:02:10.626Z,61.65
2017-02-15T00:02:32.311Z,61.63
2017-02-15T00:02:54.014Z,61.63
2017-02-15T00:03:57.094Z,61.81
2017-02-15T00:04:18.793Z,61.76
2017-02-15T00:04:40.489Z,61.67
2017-02-15T00:05:02.192Z,61.43
2017-02-15T00:05:23.903Z,61.44
2017-02-15T00:05:45.609Z,61.24
2017-02-15T00:06:07.330Z,61.31
2017-02-15T00:06:29.044Z,61.38
2017-02-15T00:06:50.764Z,61.32
2017-02-15T00:07:12.473Z,61.26
2017-02-15T00:07:34.174Z,61.26
2017-02-15T00:07:55.883Z,61.13
2017-02-15T00:08:22.363Z,60.96
2017-02-15T00:08:44.056Z,60.78
2017-02-15T00:09:05.776Z,61.10
2017-02-15T00:09:32.287Z,61.48
2017-02-15T00:09:53.981Z,61.57
2017-02-15T00:10:15.690Z,61.58
2017-02-15T00:10:42.230Z,61.62
2017-02-15T00:11:03.994Z,61.75
2017-02-15T00:11:25.690Z,61.68
2017-02-15T00:12:24.011Z,61.25
2017-02-15T00:12:45.723Z,61.36
2017-02-15T00:13:12.182Z,61.67
2017-02-15T00:13:33.886Z,61.97
2017-02-15T00:13:55.580Z,62.13
2017-02-15T00:14:17.288Z,62.21
2017-02-15T00:14:39.128Z,62.21
2017-02-15T00:15:10.484Z,62.37
2017-02-15T00:15:32.196Z,62.25
2017-02-15T00:15:53.905Z,62.38
2017-02-15T00:16:15.607Z,62.31
2017-02-15T00:16:37.304Z,62.11
2017-02-15T00:16:59.049Z,62.03
2017-02-15T00:17:20.744Z,61.96
2017-02-15T00:17:42.441Z,62.24
2017-02-15T00:18:04.142Z,62.58
2017-02-15T00:18:25.854Z,62.64
2017-02-15T00:18:47.552Z,62.67
2017-02-15T00:19:09.259Z,62.70
2017-02-15T00:19:30.962Z,62.67
2017-02-15T00:19:52.657Z,62.61
2017-02-15T00:20:14.361Z,62.72
2017-02-15T00:20:40.939Z,62.99
2017-02-15T00:21:02.750Z,63.26
2017-02-15T00:21:33.996Z,63.23
2017-02-15T00:21:55.887Z,63.09
2017-02-15T00:22:17.695Z,63.07
2017-02-15T00:22:39.392Z,63.20
2017-02-15T00:23:01.207Z,63.24
2017-02-15T00:23:23.048Z,63.56
2017-02-15T00:23:44.847Z,64.08
2017-02-15T00:24:06.674Z,64.16
2017-02-15T00:24:37.919Z,65.04
2017-02-15T00:24:59.708Z,65.28
2017-02-15T00:26:03.788Z,63.82
2017-02-15T00:26:25.678Z,64.06
2017-02-15T00:27:28.875Z,65.53
2017-02-15T00:27:50.763Z,66.09
2017-02-15T00:28:12.540Z,66.50
2017-02-15T00:28:34.340Z,66.97
2017-02-15T00:28:56.140Z,67.11
2017-02-15T00:29:17.943Z,66.40
2017-02-15T00:29:39.658Z,65.79
2017-02-15T00:30:01.480Z,65.42
2017-02-15T00:30:32.756Z,65.32
2017-02-15T00:30:54.548Z,65.17
2017-02-15T00:31:16.260Z,65.27
2017-02-15T00:31:42.841Z,65.39
2017-02-15T00:32:04.666Z,66.02
2017-02-15T00:32:26.465Z,66.12
2017-02-15T00:32:52.941Z,66.38
2017-02-15T00:33:14.827Z,66.29
2017-02-15T00:33:36.543Z,66.47
2017-02-15T00:33:58.333Z,66.94
2017-02-15T00:34:20.030Z,66.87
2017-02-15T00:34:41.844Z,67.18
2017-02-15T00:35:03.656Z,67.53
2017-02-15T00:35:25.461Z,67.33
2017-02-15T00:35:47.262Z,67.24
2017-02-15T00:36:13.749Z,66.87
2017-02-15T00:36:35.599Z,66.86
2017-02-15T00:37:02.178Z,66.49
2017-02-15T00:37:23.978Z,66.44
2017-02-15T00:37:50.445Z,66.16
2017-02-15T00:38:12.239Z,65.87
2017-02-15T00:38:38.911Z,65.91
2017-02-15T00:39:00.619Z,66.00
2017-02-15T00:39:27.188Z,66.06
2017-02-15T00:39:48.879Z,66.17
2017-02-15T00:40:15.454Z,66.09
2017-02-15T00:40:37.356Z,66.08
2017-02-15T00:40:59.055Z,66.09
2017-02-15T00:42:06.369Z,66.28
2017-02-15T00:42:28.273Z,66.02
2017-02-15T00:42:54.753Z,65.83
2017-02-15T00:43:16.445Z,65.78
2017-02-15T00:44:19.496Z,65.60
2017-02-15T00:44:41.374Z,65.68
2017-02-15T00:45:07.853Z,65.88
2017-02-15T00:45:29.659Z,65.86
2017-02-15T00:46:41.713Z,66.12
2017-02-15T00:47:03.496Z,65.72
2017-02-15T00:47:25.201Z,65.74
2017-02-15T00:47:47.109Z,65.74
2017-02-15T00:48:08.840Z,65.75
2017-02-15T00:48:30.547Z,65.70
2017-02-15T00:48:57.120Z,65.62
2017-02-15T00:49:19.001Z,65.69
2017-02-15T00:49:40.810Z,65.81
2017-02-15T00:50:47.999Z,65.58
2017-02-15T00:51:09.922Z,65.63
2017-02-15T00:52:12.995Z,65.70
2017-02-15T00:52:34.891Z,65.50
2017-02-15T00:52:56.702Z,65.48
2017-02-15T00:53:23.172Z,65.77
2017-02-15T00:53:44.962Z,65.89
2017-02-15T00:54:09.573Z,65.90
2017-02-15T00:54:31.393Z,65.82
2017-02-15T00:54:57.982Z,65.79
2017-02-15T00:55:19.805Z,65.74
2017-02-15T00:55:41.495Z,65.76
2017-02-15T00:56:08.178Z,65.74
2017-02-15T00:56:29.960Z,65.67
2017-02-15T00:56:51.687Z,65.63
2017-02-15T00:57:54.957Z,65.31
2017-02-15T00:58:16.652Z,65.38
2017-02-15T00:58:43.238Z,65.46
2017-02-15T00:59:05.038Z,65.45
2017-02-15T01:00:12.316Z,65.72
2017-02-15T01:00:34.119Z,65.97
2017-02-15T01:00:55.929Z,66.00
2017-02-15T01:01:27.177Z,66.20
2017-02-15T01:01:48.999Z,66.20
2017-02-15T01:02:15.471Z,66.21
2017-02-15T01:02:37.364Z,66.16
2017-02-15T01:02:59.160Z,66.09
2017-02-15T01:03:20.891Z,66.30
2017-02-15T01:03:42.791Z,66.34
2017-02-15T01:04:04.586Z,66.36
2017-02-15T01:05:03.005Z,66.21
2017-02-15T01:05:24.795Z,66.48
2017-02-15T01:05:46.617Z,66.60
2017-02-15T01:06:13.094Z,66.70
2017-02-15T01:06:34.883Z,66.84
2017-02-15T01:06:56.591Z,67.01
2017-02-15T01:07:23.172Z,67.09
2017-02-15T01:07:45.063Z,67.24
2017-02-15T01:08:11.638Z,67.53
2017-02-15T01:08:33.459Z,67.42
2017-02-15T01:09:04.752Z,67.01
2017-02-15T01:09:26.695Z,67.04
2017-02-15T01:09:48.462Z,67.23
2017-02-15T01:10:14.937Z,67.33
2017-02-15T01:10:36.891Z,67.30
2017-02-15T01:11:03.360Z,67.19
2017-02-15T01:11:25.286Z,66.96
2017-02-15T01:12:23.806Z,66.96
2017-02-15T01:12:45.602Z,67.06
2017-02-15T01:13:07.389Z,67.19
2017-02-15T01:13:29.202Z,67.21
2017-02-15T01:13:51.006Z,67.33
2017-02-15T01:14:22.160Z,67.06
2017-02-15T01:14:44.053Z,66.87
2017-02-15T01:15:15.301Z,66.62
2017-02-15T01:15:37.128Z,66.57
2017-02-15T01:16:39.740Z,66.59
2017-02-15T01:17:01.536Z,66.77
2017-02-15T01:17:28.011Z,66.93
2017-02-15T01:17:49.914Z,66.83
2017-02-15T01:18:21.168Z,66.99
2017-02-15T01:18:43.078Z,67.08
2017-02-15T01:19:14.340Z,67.48
2017-02-15T01:19:36.042Z,67.64
2017-02-15T01:20:07.406Z,67.76
2017-02-15T01:20:29.288Z,67.83
2017-02-15T01:21:00.546Z,67.80
2017-02-15T01:21:22.342Z,67.54
2017-02-15T01:22:25.460Z,68.01
2017-02-15T01:22:47.364Z,68.14
2017-02-15T01:23:09.071Z,68.52
2017-02-15T01:23:35.636Z,68.59
2017-02-15T01:23:57.427Z,68.77
2017-02-15T01:24:19.140Z,68.58
2017-02-15T01:24:40.980Z,68.53
2017-02-15T01:25:02.892Z,68.35
2017-02-15T01:25:24.692Z,68.35
2017-02-15T01:25:55.956Z,67.88
2017-02-15T01:26:17.753Z,67.99
2017-02-15T01:26:39.499Z,68.02
2017-02-15T01:27:06.068Z,68.17
2017-02-15T01:27:27.879Z,68.32
2017-02-15T01:27:49.781Z,68.41
2017-02-15T01:28:16.349Z,68.33
2017-02-15T01:28:38.137Z,68.22
2017-02-15T01:28:59.831Z,68.27
2017-02-15T01:29:26.405Z,68.15
2017-02-15T01:29:48.157Z,68.09
2017-02-15T01:30:09.870Z,68.08
2017-02-15T01:30:36.448Z,68.04
2017-02-15T01:30:58.161Z,68.12
2017-02-15T01:31:19.875Z,68.17
2017-02-15T01:31:46.346Z,68.06
2017-02-15T01:32:08.053Z,68.08
2017-02-15T01:32:39.299Z,68.17
2017-02-15T01:33:01.454Z,68.39
2017-02-15T01:33:27.934Z,68.59
2017-02-15T01:33:49.635Z,68.75
2017-02-15T01:34:16.219Z,68.95
2017-02-15T01:34:37.913Z,68.86
2017-02-15T01:34:59.651Z,69.15
2017-02-15T01:35:58.090Z,69.23
2017-02-15T01:36:19.796Z,69.35
2017-02-15T01:36:46.279Z,69.39
2017-02-15T01:37:44.702Z,69.14
2017-02-15T01:38:06.401Z,69.32
2017-02-15T01:38:32.883Z,69.41
2017-02-15T01:38:54.672Z,69.46
2017-02-15T01:39:52.964Z,69.35
2017-02-15T01:40:14.820Z,69.36
2017-02-15T01:40:36.531Z,69.28
2017-02-15T01:41:39.707Z,68.78
2017-02-15T01:42:01.414Z,68.80
2017-02-15T01:43:04.506Z,68.88
2017-02-15T01:43:26.298Z,68.86
2017-02-15T01:43:48.013Z,68.71
2017-02-15T01:44:14.491Z,68.74
2017-02-15T01:44:36.286Z,68.46
2017-02-15T01:44:57.989Z,68.33
2017-02-15T01:45:19.736Z,68.62
2017-02-15T01:45:41.445Z,68.38
2017-02-15T01:46:03.254Z,68.50
2017-02-15T01:46:24.957Z,68.42
2017-02-15T01:46:46.653Z,68.55
2017-02-15T01:47:08.369Z,68.68
2017-02-15T01:47:30.178Z,68.66
2017-02-15T01:47:51.873Z,68.73
2017-02-15T01:48:13.580Z,68.98
2017-02-15T01:48:40.070Z,69.07
2017-02-15T01:49:01.883Z,69.10
2017-02-15T01:49:23.596Z,69.43
2017-02-15T01:49:45.304Z,69.42
2017-02-15T01:50:07.002Z,69.87
2017-02-15T01:50:28.840Z,70.06
2017-02-15T01:50:50.541Z,70.12
2017-02-15T01:51:12.237Z,70.09
2017-02-15T01:51:43.495Z,69.80
2017-02-15T01:52:05.291Z,69.73
2017-02-15T01:52:31.761Z,69.48
2017-02-15T01:52:53.461Z,69.52
2017-02-15T01:53:15.278Z,69.49
2017-02-15T01:53:41.767Z,69.33
2017-02-15T01:54:03.473Z,69.32
2017-02-15T01:55:06.626Z,69.47
2017-02-15T01:55:28.347Z,69.70
2017-02-15T01:56:31.513Z,69.59
2017-02-15T01:56:53.260Z,69.73
2017-02-15T01:57:14.959Z,69.81
2017-02-15T01:57:36.665Z,69.75
2017-02-15T01:57:58.461Z,69.74
2017-02-15T01:58:24.939Z,69.70
2017-02-15T01:58:46.640Z,69.76
2017-02-15T01:59:13.231Z,69.81
2017-02-15T01:59:34.932Z,69.99
2017-02-15T01:59:56.637Z,70.06
2017-02-15T02:00:23.126Z,70.15
2017-02-15T02:00:44.872Z,70.20
2017-02-15T02:01:06.576Z,70.06
2017-02-15T02:02:13.868Z,70.27
2017-02-15T02:02:35.653Z,69.96
2017-02-15T02:02:57.363Z,69.72
2017-02-15T02:03:28.613Z,69.64
2017-02-15T02:03:50.315Z,69.68
2017-02-15T02:04:16.794Z,69.49
2017-02-15T02:04:38.503Z,69.65
2017-02-15T02:05:09.758Z,69.58
2017-02-15T02:05:31.462Z,69.59
2017-02-15T02:06:02.721Z,69.40
2017-02-15T02:06:24.530Z,69.49
2017-02-15T02:06:46.244Z,69.51
2017-02-15T02:07:49.442Z,69.75
2017-02-15T02:08:11.158Z,69.99
2017-02-15T02:08:32.868Z,70.12
2017-02-15T02:09:04.122Z,70.36
2017-02-15T02:09:25.902Z,70.16
2017-02-15T02:09:47.633Z,70.19
2017-02-15T02:10:09.326Z,70.43
2017-02-15T02:10:31.166Z,70.38
2017-02-15T02:10:52.878Z,70.38
2017-02-15T02:11:14.584Z,70.47
2017-02-15T02:11:45.849Z,70.43
2017-02-15T02:12:07.557Z,70.09
2017-02-15T02:12:29.273Z,70.22
2017-02-15T02:12:55.744Z,70.41
2017-02-15T02:13:17.531Z,70.68
2017-02-15T02:13:44.013Z,70.71
2017-02-15T02:14:05.757Z,70.98
2017-02-15T02:14:32.222Z,70.95
2017-02-15T02:14:54.046Z,70.45
2017-02-15T02:15:20.511Z,70.40
2017-02-15T02:15:42.210Z,70.26
2017-02-15T02:16:03.999Z,70.31
2017-02-15T02:16:30.486Z,70.31
2017-02-15T02:16:52.184Z,70.05
2017-02-15T02:17:23.433Z,69.69
2017-02-15T02:17:45.135Z,69.55
2017-02-15T02:18:52.499Z,68.87
2017-02-15T02:19:14.188Z,68.89
2017-02-15T02:20:26.250Z,69.44
2017-02-15T02:20:48.077Z,69.42
2017-02-15T02:22:00.155Z,69.57
2017-02-15T02:22:21.889Z,69.60
2017-02-15T02:22:43.585Z,69.73
2017-02-15T02:23:14.833Z,70.07
2017-02-15T02:23:36.630Z,70.17
2017-02-15T02:24:39.830Z,70.23
2017-02-15T02:25:01.577Z,70.12
2017-02-15T02:25:23.362Z,70.05
2017-02-15T02:25:49.849Z,70.23
2017-02-15T02:26:11.650Z,70.42
2017-02-15T02:26:38.145Z,70.70
2017-02-15T02:26:59.893Z,70.72
2017-02-15T02:27:21.722Z,70.74
2017-02-15T02:27:43.424Z,70.87
2017-02-15T02:28:05.123Z,70.80
2017-02-15T02:28:26.835Z,70.81
2017-02-15T02:28:48.620Z,71.11
2017-02-15T02:29:10.312Z,71.27
2017-02-15T02:29:36.794Z,71.20
2017-02-15T02:29:58.490Z,71.18
2017-02-15T02:30:20.284Z,71.15
2017-02-15T02:30:41.989Z,71.09
2017-02-15T02:31:03.702Z,70.99
2017-02-15T02:31:25.395Z,71.04
2017-02-15T02:31:51.866Z,71.17
2017-02-15T02:32:13.657Z,71.22
2017-02-15T02:32:44.909Z,71.21
2017-02-15T02:33:06.698Z,71.31
2017-02-15T02:33:37.950Z,71.00
2017-02-15T02:33:59.646Z,70.51
2017-02-15T02:34:30.896Z,70.54
2017-02-15T02:34:52.691Z,70.43
2017-02-15T02:35:23.942Z,70.58
2017-02-15T02:35:45.739Z,70.86
2017-02-15T02:36:16.997Z,71.04
2017-02-15T02:36:38.700Z,71.27
2017-02-15T02:37:05.177Z,71.03
2017-02-15T02:37:26.966Z,70.92
2017-02-15T02:37:48.694Z,71.03
2017-02-15T02:38:51.883Z,70.99
2017-02-15T02:39:13.586Z,71.17
2017-02-15T02:39:44.858Z,71.33
2017-02-15T02:40:06.649Z,71.52
2017-02-15T02:40:33.119Z,71.50
2017-02-15T02:40:54.824Z,71.38
2017-02-15T02:41:21.340Z,71.34
2017-02-15T02:41:43.049Z,71.27
2017-02-15T02:42:50.353Z,70.86
2017-02-15T02:43:12.078Z,70.80
2017-02-15T02:43:33.875Z,70.88
2017-02-15T02:44:05.123Z,70.98
2017-02-15T02:44:27.028Z,70.92
2017-02-15T02:44:53.511Z,71.04
2017-02-15T02:45:15.324Z,71.15
2017-02-15T02:46:19.419Z,71.28
2017-02-15T02:46:41.308Z,71.15
2017-02-15T02:47:07.786Z,71.00
2017-02-15T02:47:29.606Z,71.02
2017-02-15T02:47:51.431Z,71.29
2017-02-15T02:48:17.911Z,71.41
2017-02-15T02:48:39.702Z,71.50
2017-02-15T02:49:06.193Z,71.51
2017-02-15T02:49:27.976Z,71.64
2017-02-15T02:49:59.239Z,71.53
2017-02-15T02:50:20.937Z,71.58
2017-02-15T02:50:42.840Z,71.56
2017-02-15T02:51:04.557Z,71.51
2017-02-15T02:51:26.463Z,71.50
2017-02-15T02:51:52.940Z,71.70
2017-02-15T02:52:14.633Z,71.53
2017-02-15T02:52:36.527Z,71.48
2017-02-15T02:53:03.020Z,71.61
2017-02-15T02:53:24.723Z,71.64
2017-02-15T02:53:46.514Z,71.69
2017-02-15T02:54:08.303Z,71.79
2017-02-15T02:54:30.198Z,71.73
2017-02-15T02:55:01.465Z,71.62
2017-02-15T02:55:23.153Z,71.62
2017-02-15T02:55:44.862Z,71.77
2017-02-15T02:56:06.662Z,71.83
2017-02-15T02:56:28.377Z,71.93
2017-02-15T02:56:59.721Z,72.26
2017-02-15T02:57:21.424Z,72.37
2017-02-15T02:57:43.223Z,72.38
2017-02-15T02:58:09.712Z,72.53
2017-02-15T02:58:31.610Z,72.47
2017-02-15T02:58:53.314Z,72.34
2017-02-15T02:59:56.615Z,72.35
2017-02-15T03:00:18.316Z,72.64
2017-02-15T03:00:49.581Z,72.99
2017-02-15T03:01:11.385Z,73.16
2017-02-15T03:01:37.865Z,73.23
2017-02-15T03:01:59.753Z,72.98
2017-02-15T03:02:21.458Z,72.67
2017-02-15T03:02:43.260Z,72.58
2017-02-15T03:03:05.133Z,72.61
2017-02-15T03:03:31.612Z,72.77
2017-02-15T03:03:53.316Z,72.88
2017-02-15T03:04:15.225Z,73.00
2017-02-15T03:04:46.474Z,72.97
2017-02-15T03:05:08.262Z,72.57
2017-02-15T03:05:34.734Z,71.93
2017-02-15T03:05:56.528Z,71.95
2017-02-15T03:06:18.346Z,72.20
2017-02-15T03:06:40.229Z,72.34
2017-02-15T03:07:01.930Z,72.30
2017-02-15T03:08:05.145Z,71.53
2017-02-15T03:08:26.972Z,71.11
2017-02-15T03:08:48.681Z,71.04
2017-02-15T03:09:15.168Z,70.78
2017-02-15T03:09:37.102Z,70.95
2017-02-15T03:09:58.797Z,71.16
2017-02-15T03:10:25.365Z,71.38
2017-02-15T03:10:47.164Z,71.42
2017-02-15T03:11:13.740Z,71.47
2017-02-15T03:11:35.635Z,71.48
2017-02-15T03:11:57.444Z,71.48
2017-02-15T03:12:19.263Z,71.52
2017-02-15T03:12:40.956Z,71.46
2017-02-15T03:13:02.851Z,71.65
2017-02-15T03:13:34.004Z,71.71
2017-02-15T03:13:55.817Z,71.56
2017-02-15T03:14:58.908Z,71.11
2017-02-15T03:15:20.831Z,71.02
2017-02-15T03:15:42.526Z,71.00
2017-02-15T03:16:04.325Z,71.09
2017-02-15T03:16:26.135Z,71.25
2017-02-15T03:17:24.519Z,70.95
2017-02-15T03:17:46.224Z,71.06
2017-02-15T03:18:08.062Z,71.16
2017-02-15T03:18:29.874Z,71.30
2017-02-15T03:18:51.750Z,71.46
2017-02-15T03:19:13.451Z,71.40
2017-02-15T03:19:35.341Z,71.59
2017-02-15T03:19:57.051Z,71.65
2017-02-15T03:20:18.860Z,71.78
2017-02-15T03:20:45.336Z,72.09
2017-02-15T03:21:07.033Z,71.83
2017-02-15T03:21:33.507Z,71.65
2017-02-15T03:21:55.407Z,71.84
2017-02-15T03:22:17.199Z,72.13
2017-02-15T03:23:20.311Z,72.26
2017-02-15T03:23:42.191Z,72.16
2017-02-15T03:24:13.451Z,72.12
2017-02-15T03:24:35.159Z,71.91
2017-02-15T03:25:06.417Z,71.73
2017-02-15T03:25:28.212Z,71.87
2017-02-15T03:25:49.844Z,71.93
2017-02-15T03:26:16.407Z,72.14
2017-02-15T03:26:38.117Z,72.01
2017-02-15T03:26:59.817Z,72.17
2017-02-15T03:27:21.709Z,72.24
2017-02-15T03:27:43.408Z,72.08
2017-02-15T03:28:05.200Z,72.22
2017-02-15T03:28:31.787Z,72.20
2017-02-15T03:28:53.482Z,72.02
2017-02-15T03:29:15.200Z,72.10
2017-02-15T03:29:41.686Z,72.17
2017-02-15T03:30:03.578Z,72.13
2017-02-15T03:30:25.360Z,72.05
2017-02-15T03:30:47.061Z,72.07
2017-02-15T03:31:08.758Z,71.92
2017-02-15T03:31:30.461Z,72.23
2017-02-15T03:31:56.937Z,72.33
2017-02-15T03:32:18.640Z,72.43
2017-02-15T03:32:40.339Z,72.35
2017-02-15T03:33:11.585Z,72.19
2017-02-15T03:33:33.431Z,72.08
2017-02-15T03:34:04.683Z,71.66
2017-02-15T03:34:26.479Z,71.60
2017-02-15T03:34:48.370Z,71.59
2017-02-15T03:35:14.864Z,71.67
2017-02-15T03:35:36.757Z,71.86
2017-02-15T03:36:08.012Z,72.10
2017-02-15T03:36:29.801Z,72.20
2017-02-15T03:36:56.281Z,72.30
2017-02-15T03:37:17.980Z,72.36
2017-02-15T03:37:44.564Z,72.35
2017-02-15T03:38:11.162Z,72.51
2017-02-15T03:38:32.878Z,72.28
2017-02-15T03:38:54.709Z,72.22
2017-02-15T03:39:16.414Z,72.29
2017-02-15T03:39:42.882Z,72.24
2017-02-15T03:40:04.580Z,72.25
2017-02-15T03:40:31.052Z,72.48
2017-02-15T03:40:52.754Z,72.63
2017-02-15T03:41:14.467Z,72.33
2017-02-15T03:41:36.173Z,72.33
2017-02-15T03:41:57.865Z,72.66
2017-02-15T03:42:19.675Z,72.47
2017-02-15T03:42:41.383Z,72.39
2017-02-15T03:43:03.076Z,72.61
2017-02-15T03:43:34.327Z,72.49
2017-02-15T03:43:56.032Z,72.53
2017-02-15T03:44:17.734Z,72.62
2017-02-15T03:45:20.237Z,72.40
2017-02-15T03:45:42.049Z,72.59
2017-02-15T03:46:03.757Z,72.38
2017-02-15T03:46:30.238Z,72.01
2017-02-15T03:46:52.039Z,71.88
2017-02-15T03:47:18.525Z,72.17
2017-02-15T03:47:40.226Z,72.43
2017-02-15T03:48:01.945Z,72.32
2017-02-15T03:48:28.523Z,72.07
2017-02-15T03:48:50.227Z,72.21
2017-02-15T03:49:16.715Z,71.81
2017-02-15T03:49:38.526Z,71.79
2017-02-15T03:50:00.231Z,71.86
2017-02-15T03:50:22.039Z,71.95
2017-02-15T03:50:43.731Z,72.06
2017-02-15T03:51:05.552Z,72.20
2017-02-15T03:51:32.020Z,72.35
2017-02-15T03:51:53.808Z,72.57
2017-02-15T03:52:20.284Z,72.55
2017-02-15T03:52:41.995Z,72.40
2017-02-15T03:53:03.745Z,72.43
2017-02-15T03:53:25.444Z,72.59
2017-02-15T03:53:47.173Z,72.78
2017-02-15T03:54:08.896Z,72.92
2017-02-15T03:54:35.375Z,73.02
2017-02-15T03:54:57.089Z,73.01
2017-02-15T03:55:18.799Z,72.68
2017-02-15T03:55:40.502Z,72.63
2017-02-15T03:56:02.195Z,72.63
2017-02-15T03:56:23.891Z,72.53
2017-02-15T03:56:45.690Z,72.50
2017-02-15T03:57:07.395Z,72.58
2017-02-15T03:57:29.095Z,72.82
2017-02-15T03:58:00.344Z,72.57
2017-02-15T03:58:22.186Z,72.39
2017-02-15T03:58:48.705Z,72.33
2017-02-15T03:59:10.424Z,72.21
2017-02-15T03:59:36.907Z,72.03
2017-02-15T03:59:58.700Z,71.75
2017-02-15T04:00:20.401Z,71.76
2017-02-15T04:01:23.591Z,72.25
2017-02-15T04:01:45.294Z,72.45
2017-02-15T04:02:06.993Z,72.71
2017-02-15T04:02:28.786Z,72.81
2017-02-15T04:02:50.477Z,72.91
2017-02-15T04:03:16.961Z,72.83
2017-02-15T04:03:38.657Z,72.80
2017-02-15T04:04:05.247Z,72.84
2017-02-15T04:04:26.954Z,72.82
2017-02-15T04:04:48.673Z,72.83
2017-02-15T04:05:15.246Z,72.97
2017-02-15T04:05:36.946Z,73.12
2017-02-15T04:06:03.425Z,73.22
2017-02-15T04:06:25.119Z,73.32
2017-02-15T04:06:46.913Z,73.37
2017-02-15T04:07:45.202Z,73.15
2017-02-15T04:08:07.003Z,73.04
2017-02-15T04:09:09.540Z,72.84
2017-02-15T04:09:31.338Z,72.96
2017-02-15T04:09:53.043Z,72.91
2017-02-15T04:10:14.749Z,73.00
2017-02-15T04:10:36.455Z,73.19
2017-02-15T04:10:58.264Z,73.03
2017-02-15T04:12:05.556Z,73.16
2017-02-15T04:12:27.389Z,73.05
2017-02-15T04:12:49.098Z,72.78
2017-02-15T04:13:10.804Z,72.57
2017-02-15T04:13:32.513Z,72.71
2017-02-15T04:13:59.089Z,72.87
2017-02-15T04:14:20.817Z,72.57
2017-02-15T04:14:42.525Z,72.56
2017-02-15T04:15:13.784Z,72.94
2017-02-15T04:15:35.576Z,73.31
2017-02-15T04:15:57.294Z,73.48
2017-02-15T04:16:19.013Z,73.66
2017-02-15T04:16:40.810Z,73.77
2017-02-15T04:17:07.291Z,73.73
2017-02-15T04:17:28.999Z,73.86
2017-02-15T04:18:00.254Z,73.64
2017-02-15T04:18:22.055Z,73.97
2017-02-15T04:18:43.758Z,73.80
2017-02-15T04:19:05.464Z,73.91
2017-02-15T04:19:27.297Z,73.66
2017-02-15T04:19:48.996Z,73.55
2017-02-15T04:20:15.476Z,73.21
2017-02-15T04:20:38.178Z,73.29
2017-02-15T04:21:45.465Z,72.97
2017-02-15T04:22:07.161Z,73.05
2017-02-15T04:23:05.563Z,73.58
2017-02-15T04:23:27.281Z,73.59
2017-02-15T04:23:48.993Z,73.60
2017-02-15T04:24:10.806Z,73.61
2017-02-15T04:24:32.531Z,73.68
2017-02-15T04:24:54.253Z,73.60
2017-02-15T04:25:20.821Z,73.34
2017-02-15T04:25:42.558Z,73.20
2017-02-15T04:26:09.053Z,73.14
2017-02-15T04:26:30.765Z,73.31
2017-02-15T04:26:52.573Z,73.59
2017-02-15T04:27:19.073Z,73.91
2017-02-15T04:27:40.785Z,73.92
2017-02-15T04:28:02.506Z,73.95
2017-02-15T04:28:24.306Z,73.77
2017-02-15T04:28:46.011Z,73.97
2017-02-15T04:29:12.516Z,73.91
2017-02-15T04:29:34.254Z,74.03
2017-02-15T04:29:56.072Z,74.00
2017-02-15T04:30:22.550Z,74.04
2017-02-15T04:30:44.244Z,73.91
2017-02-15T04:31:05.937Z,73.91
2017-02-15T04:31:27.737Z,74.03
2017-02-15T04:31:49.438Z,74.05
2017-02-15T04:32:11.134Z,74.06
2017-02-15T04:32:37.702Z,74.11
2017-02-15T04:32:59.399Z,73.94
2017-02-15T04:33:21.105Z,73.87
2017-02-15T04:33:42.814Z,73.77
2017-02-15T04:34:04.625Z,73.75
2017-02-15T04:34:35.898Z,73.86
2017-02-15T04:34:57.604Z,74.09
2017-02-15T04:35:19.377Z,74.27
2017-02-15T04:35:41.082Z,74.44
2017-02-15T04:36:02.786Z,74.50
2017-02-15T04:36:24.485Z,74.49
2017-02-15T04:36:46.307Z,74.39
2017-02-15T04:37:08.007Z,74.36
2017-02-15T04:37:39.257Z,74.32
2017-02-15T04:38:01.048Z,74.29
2017-02-15T04:38:32.306Z,74.37
2017-02-15T04:38:54.011Z,74.29
2017-02-15T04:39:20.579Z,74.09
2017-02-15T04:39:42.309Z,74.11
2017-02-15T04:40:13.560Z,74.09
2017-02-15T04:40:35.360Z,74.03
2017-02-15T04:41:06.607Z,74.01
2017-02-15T04:41:28.315Z,73.87
2017-02-15T04:41:59.561Z,74.13
2017-02-15T04:42:21.342Z,74.28
2017-02-15T04:42:52.593Z,74.01
2017-02-15T04:43:14.401Z,74.02
2017-02-15T04:43:36.108Z,73.95
2017-02-15T04:44:07.357Z,73.86
2017-02-15T04:44:29.167Z,73.80
2017-02-15T04:44:50.895Z,73.66
2017-02-15T04:45:17.368Z,73.67
2017-02-15T04:45:39.169Z,73.71
2017-02-15T04:46:10.411Z,73.70
2017-02-15T04:46:32.105Z,73.67
2017-02-15T04:46:58.687Z,73.50
2017-02-15T04:47:20.383Z,73.59
2017-02-15T04:47:46.869Z,73.53
2017-02-15T04:48:08.568Z,73.52
2017-02-15T04:48:30.372Z,73.41
2017-02-15T04:49:01.631Z,73.79
2017-02-15T04:49:23.341Z,73.99
2017-02-15T04:49:49.961Z,74.00
2017-02-15T04:50:11.667Z,74.04
2017-02-15T04:50:33.366Z,74.04
2017-02-15T04:50:59.927Z,74.10
2017-02-15T04:51:21.641Z,74.07
2017-02-15T04:52:24.262Z,74.42
2017-02-15T04:52:50.750Z,74.72
2017-02-15T04:53:12.449Z,74.68
2017-02-15T04:53:43.708Z,74.64
2017-02-15T04:54:05.522Z,74.50
2017-02-15T04:55:08.165Z,74.51
2017-02-15T04:55:29.865Z,74.60
2017-02-15T04:56:01.117Z,74.54
2017-02-15T04:56:22.821Z,74.68
2017-02-15T04:56:54.078Z,74.72
2017-02-15T04:57:15.774Z,74.72
2017-02-15T04:57:37.578Z,74.73
2017-02-15T04:57:59.282Z,74.58
2017-02-15T04:58:20.977Z,74.53
2017-02-15T04:58:47.577Z,74.65
2017-02-15T04:59:09.272Z,74.72
2017-02-15T04:59:30.977Z,74.54
2017-02-15T05:00:34.285Z,74.61
2017-02-15T05:00:55.987Z,74.38
2017-02-15T05:01:17.679Z,74.21
2017-02-15T05:01:44.242Z,74.28
2017-02-15T05:02:05.927Z,74.32
2017-02-15T05:02:27.637Z,74.58
2017-02-15T05:02:49.341Z,74.83
2017-02-15T05:03:11.135Z,75.06
2017-02-15T05:04:23.196Z,75.02
2017-02-15T05:04:44.924Z,74.91
2017-02-15T05:05:06.650Z,74.95
2017-02-15T05:05:37.903Z,74.90
2017-02-15T05:05:59.701Z,75.08
2017-02-15T05:06:21.423Z,74.83
2017-02-15T05:06:43.122Z,74.64
2017-02-15T05:07:04.928Z,74.49
2017-02-15T05:07:26.635Z,74.72
2017-02-15T05:07:57.895Z,74.70
2017-02-15T05:08:19.697Z,74.57
2017-02-15T05:09:22.790Z,74.24
2017-02-15T05:09:44.588Z,74.38
2017-02-15T05:10:51.871Z,74.55
2017-02-15T05:11:13.657Z,74.48
2017-02-15T05:11:35.355Z,74.54
2017-02-15T05:12:06.611Z,74.62
2017-02-15T05:12:28.411Z,74.74
2017-02-15T05:12:54.901Z,74.74
2017-02-15T05:13:16.685Z,74.62
2017-02-15T05:13:38.393Z,74.67
2017-02-15T05:14:00.095Z,74.64
2017-02-15T05:14:21.804Z,74.80
2017-02-15T05:14:43.511Z,74.87
2017-02-15T05:15:10.081Z,74.73
2017-02-15T05:15:31.778Z,74.58
2017-02-15T05:15:53.500Z,74.55
2017-02-15T05:16:24.767Z,74.66
2017-02-15T05:16:46.475Z,74.76
2017-02-15T05:17:08.185Z,74.86
2017-02-15T05:17:39.442Z,75.11
2017-02-15T05:18:01.230Z,75.34
2017-02-15T05:18:23.036Z,75.40
2017-02-15T05:18:44.639Z,75.42
2017-02-15T05:19:06.338Z,75.20
2017-02-15T05:19:28.149Z,74.87
2017-02-15T05:19:49.954Z,74.83
2017-02-15T05:20:11.677Z,74.84
2017-02-15T05:20:42.939Z,74.66
2017-02-15T05:21:04.746Z,74.71
2017-02-15T05:21:31.232Z,74.63
2017-02-15T05:21:52.934Z,74.62
2017-02-15T05:22:14.623Z,74.68
2017-02-15T05:22:36.330Z,74.79
2017-02-15T05:22:58.035Z,74.80
2017-02-15T05:23:19.746Z,74.91
2017-02-15T05:23:41.459Z,75.04
2017-02-15T05:24:03.156Z,75.03
2017-02-15T05:24:24.850Z,75.14
2017-02-15T05:25:23.205Z,75.22
2017-02-15T05:25:44.907Z,75.21
2017-02-15T05:26:47.413Z,75.17
2017-02-15T05:27:09.108Z,75.08
2017-02-15T05:27:40.367Z,75.06
2017-02-15T05:28:02.069Z,75.15
2017-02-15T05:29:05.160Z,75.23
2017-02-15T05:29:26.855Z,75.36
2017-02-15T05:29:53.432Z,75.26
2017-02-15T05:30:15.218Z,75.16
2017-02-15T05:31:22.504Z,75.73
2017-02-15T05:31:44.293Z,75.82
2017-02-15T05:32:06.093Z,75.72
2017-02-15T05:32:32.568Z,75.78
2017-02-15T05:32:54.356Z,75.84
2017-02-15T05:33:16.149Z,75.66
2017-02-15T05:33:42.633Z,75.44
2017-02-15T05:34:04.328Z,75.19
2017-02-15T05:34:30.820Z,74.91
2017-02-15T05:34:52.613Z,74.79
2017-02-15T05:35:14.327Z,74.88
2017-02-15T05:35:40.802Z,74.93
2017-02-15T05:36:02.502Z,75.09
2017-02-15T05:37:05.109Z,75.29
2017-02-15T05:37:26.803Z,75.19
2017-02-15T05:37:58.063Z,75.12